createdAt,value
2018-12-16T00:00:29.056Z,14.95
2018-12-16T00:02:56.471Z,16.20
2018-12-16T00:05:23.876Z,17.05
2018-12-16T00:07:51.998Z,13.15
2018-12-16T00:10:19.510Z,17.50
2018-12-16T00:12:47.110Z,17.92
2018-12-16T00:15:14.888Z,18.62
2018-12-16T00:17:42.739Z,18.42
2018-12-16T00:20:13.931Z,15.52
2018-12-16T00:22:41.440Z,16.73
2018-12-16T00:25:08.870Z,17.35
2018-12-16T00:27:36.503Z,15.82
2018-12-16T00:30:04.012Z,20.37
2018-12-16T00:32:34.175Z,17.00
2018-12-16T00:35:03.427Z,17.08
2018-12-16T00:37:31.453Z,19.33
2018-12-16T00:39:59.295Z,21.23
2018-12-16T00:42:26.932Z,16.40
2018-12-16T00:44:54.980Z,17.12
2018-12-16T00:47:22.547Z,17.73
2018-12-16T00:49:51.033Z,16.92
2018-12-16T00:52:19.418Z,17.08
2018-12-16T00:54:50.574Z,16.27
2018-12-16T00:57:18.048Z,17.92
2018-12-16T00:59:45.499Z,20.33
2018-12-16T01:02:18.671Z,17.02
2018-12-16T01:04:46.150Z,15.80
2018-12-16T01:07:14.210Z,16.12
2018-12-16T01:09:42.519Z,14.15
2018-12-16T01:12:09.984Z,15.65
2018-12-16T01:14:38.022Z,17.25
2018-12-16T01:17:06.122Z,16.50
2018-12-16T01:19:33.535Z,16.20
2018-12-16T01:22:00.990Z,15.90
2018-12-16T01:24:28.429Z,14.43
2018-12-16T01:26:55.876Z,14.98
2018-12-16T01:29:23.276Z,14.10
2018-12-16T01:31:50.696Z,18.15
2018-12-16T01:34:18.098Z,18.83
2018-12-16T01:36:45.528Z,13.70
2018-12-16T01:39:12.936Z,16.52
2018-12-16T01:41:40.350Z,15.55
2018-12-16T01:44:08.092Z,15.60
2018-12-16T01:46:35.543Z,16.35
2018-12-16T01:49:04.912Z,16.50
2018-12-16T01:51:32.313Z,20.08
2018-12-16T01:53:59.742Z,16.35
2018-12-16T01:56:27.253Z,17.08
2018-12-16T01:58:54.727Z,17.55
2018-12-16T02:01:22.276Z,14.93
2018-12-16T02:03:49.702Z,15.13
2018-12-16T02:06:17.800Z,13.90
2018-12-16T02:08:45.445Z,14.23
2018-12-16T02:11:12.934Z,17.17
2018-12-16T02:13:40.560Z,17.05
2018-12-16T02:16:08.103Z,18.42
2018-12-16T02:18:36.207Z,16.17
2018-12-16T02:21:08.222Z,17.42
2018-12-16T02:23:36.934Z,15.13
2018-12-16T02:26:04.896Z,14.77
2018-12-16T02:28:33.034Z,14.32
2018-12-16T02:31:00.556Z,14.35
2018-12-16T02:33:29.492Z,11.40
2018-12-16T02:35:57.048Z,15.52
2018-12-16T02:38:24.728Z,10.70
2018-12-16T02:40:52.138Z,13.00
2018-12-16T02:43:19.629Z,11.18
2018-12-16T02:45:47.890Z,10.93
2018-12-16T02:48:15.577Z,11.00
2018-12-16T02:50:43.225Z,12.85
2018-12-16T02:53:13.031Z,9.68
2018-12-16T02:55:40.671Z,10.95
2018-12-16T02:58:08.969Z,11.65
2018-12-16T03:00:37.177Z,11.48
2018-12-16T03:03:07.054Z,11.98
2018-12-16T03:05:36.082Z,11.18
2018-12-16T03:08:05.200Z,13.00
2018-12-16T03:10:33.901Z,13.15
2018-12-16T03:13:06.660Z,12.07
2018-12-16T03:15:34.322Z,13.70
2018-12-16T03:18:03.043Z,14.40
2018-12-16T03:20:30.923Z,13.18
2018-12-16T03:22:59.283Z,15.90
2018-12-16T03:28:02.016Z,14.90
2018-12-16T03:30:33.350Z,15.68
2018-12-16T03:33:00.863Z,16.02
2018-12-16T03:35:28.787Z,16.33
2018-12-16T03:37:57.123Z,14.30
2018-12-16T03:40:24.549Z,14.07
2018-12-16T03:42:52.130Z,19.15
2018-12-16T03:45:19.599Z,12.37
2018-12-16T03:47:47.283Z,15.40
2018-12-16T03:50:14.897Z,14.05
2018-12-16T03:52:42.361Z,14.20
2018-12-16T03:55:09.968Z,15.02
2018-12-16T03:57:38.803Z,13.60
2018-12-16T04:00:07.252Z,15.98
2018-12-16T04:02:34.800Z,15.23
2018-12-16T04:05:02.386Z,14.98
2018-12-16T04:07:32.583Z,16.75
2018-12-16T04:10:00.580Z,16.65
2018-12-16T04:12:28.118Z,12.37
2018-12-16T04:14:55.551Z,13.13
2018-12-16T04:17:22.979Z,13.85
2018-12-16T04:19:50.485Z,14.20
2018-12-16T04:22:18.133Z,13.65
2018-12-16T04:24:45.595Z,14.65
2018-12-16T04:27:18.894Z,14.77
2018-12-16T04:29:47.167Z,12.52
2018-12-16T04:32:15.333Z,14.80
2018-12-16T04:34:42.912Z,13.62
2018-12-16T04:37:10.587Z,15.27
2018-12-16T04:39:38.103Z,12.18
2018-12-16T04:42:07.389Z,12.68
2018-12-16T04:44:35.173Z,13.27
2018-12-16T04:47:02.710Z,12.63
2018-12-16T04:49:30.183Z,13.40
2018-12-16T04:51:57.942Z,13.05
2018-12-16T04:54:25.392Z,13.43
2018-12-16T04:56:53.394Z,13.35
2018-12-16T04:59:20.835Z,12.63
2018-12-16T05:01:48.922Z,15.70
2018-12-16T05:04:16.449Z,15.70
2018-12-16T05:06:43.841Z,13.90
2018-12-16T05:09:11.290Z,14.75
2018-12-16T05:11:38.708Z,13.98
2018-12-16T05:14:06.120Z,13.27
2018-12-16T05:16:33.534Z,15.88
2018-12-16T05:19:00.959Z,12.50
2018-12-16T05:21:28.360Z,13.45
2018-12-16T05:23:55.786Z,11.20
2018-12-16T05:26:23.293Z,12.63
2018-12-16T05:28:50.697Z,12.63
2018-12-16T05:31:18.263Z,12.48
2018-12-16T05:33:45.654Z,15.13
2018-12-16T05:36:13.515Z,13.13
2018-12-16T05:38:40.945Z,12.93
2018-12-16T05:41:08.408Z,14.02
2018-12-16T05:43:35.895Z,12.80
2018-12-16T05:46:03.320Z,11.93
2018-12-16T05:48:30.736Z,8.25
2018-12-16T05:50:58.153Z,12.15
2018-12-16T05:53:25.558Z,11.30
2018-12-16T05:55:52.998Z,10.05
2018-12-16T05:58:20.441Z,8.07
2018-12-16T06:00:47.877Z,10.63
2018-12-16T06:03:15.301Z,7.22
2018-12-16T06:05:42.776Z,6.12
2018-12-16T06:08:10.144Z,9.02
2018-12-16T06:10:37.599Z,7.97
2018-12-16T06:13:05.017Z,8.10
2018-12-16T06:15:32.430Z,7.22
2018-12-16T06:17:59.840Z,7.40
2018-12-16T06:20:27.284Z,7.32
2018-12-16T06:22:54.699Z,6.93
2018-12-16T06:25:22.121Z,6.37
2018-12-16T06:27:49.541Z,6.87
2018-12-16T06:30:16.960Z,6.43
2018-12-16T06:32:44.383Z,6.35
2018-12-16T06:35:11.801Z,5.85
2018-12-16T06:37:39.319Z,5.87
2018-12-16T06:40:06.871Z,7.25
2018-12-16T06:42:34.300Z,6.30
2018-12-16T06:45:01.696Z,7.10
2018-12-16T06:47:29.352Z,5.78
2018-12-16T06:49:56.873Z,6.28
2018-12-16T06:52:24.310Z,6.60
2018-12-16T06:54:51.720Z,7.22
2018-12-16T06:57:19.128Z,4.57
2018-12-16T06:59:46.574Z,6.97
2018-12-16T07:02:13.981Z,5.60
2018-12-16T07:04:41.405Z,4.55
2018-12-16T07:07:08.823Z,4.87
2018-12-16T07:09:36.248Z,4.35
2018-12-16T07:12:03.696Z,6.10
2018-12-16T07:14:31.122Z,5.62
2018-12-16T07:16:58.600Z,5.65
2018-12-16T07:19:26.020Z,6.25
2018-12-16T07:21:53.436Z,11.07
2018-12-16T07:24:20.874Z,6.82
2018-12-16T07:26:48.293Z,9.85
2018-12-16T07:29:15.767Z,10.32
2018-12-16T07:31:43.210Z,11.95
2018-12-16T07:34:10.627Z,12.90
2018-12-16T07:36:38.035Z,10.07
2018-12-16T07:39:05.478Z,10.25
2018-12-16T07:41:32.952Z,9.57
2018-12-16T07:44:00.863Z,10.23
2018-12-16T07:46:28.795Z,10.25
2018-12-16T07:48:57.304Z,10.30
2018-12-16T07:51:24.705Z,9.40
2018-12-16T07:53:52.133Z,12.45
2018-12-16T07:56:19.596Z,12.55
2018-12-16T07:58:47.008Z,9.70
2018-12-16T08:01:14.430Z,8.05
2018-12-16T08:03:42.258Z,8.73
2018-12-16T08:06:09.862Z,8.25
2018-12-16T08:08:37.430Z,9.15
2018-12-16T08:11:04.871Z,9.52
2018-12-16T08:13:32.322Z,6.12
2018-12-16T08:16:00.224Z,6.43
2018-12-16T08:18:27.653Z,7.35
2018-12-16T08:20:55.043Z,9.80
2018-12-16T08:23:22.447Z,6.87
2018-12-16T08:25:49.862Z,6.78
2018-12-16T08:28:17.304Z,5.85
2018-12-16T08:30:44.717Z,6.82
2018-12-16T08:33:12.635Z,6.45
2018-12-16T08:35:40.106Z,7.05
2018-12-16T08:38:07.531Z,6.97
2018-12-16T08:40:34.946Z,6.45
2018-12-16T08:43:02.360Z,6.70
2018-12-16T08:45:29.783Z,7.70
2018-12-16T08:47:57.184Z,5.87
2018-12-16T08:50:24.753Z,6.40
2018-12-16T08:52:52.162Z,7.47
2018-12-16T08:55:19.598Z,10.35
2018-12-16T08:57:47.032Z,7.12
2018-12-16T09:00:14.479Z,6.60
2018-12-16T09:02:41.929Z,7.62
2018-12-16T09:05:09.332Z,7.62
2018-12-16T09:07:37.396Z,7.55
2018-12-16T09:10:04.161Z,7.35
2018-12-16T09:12:32.272Z,8.35
2018-12-16T09:15:00.856Z,7.03
2018-12-16T09:17:29.412Z,7.97
2018-12-16T09:19:56.938Z,9.93
2018-12-16T09:22:24.555Z,7.57
2018-12-16T09:24:53.071Z,6.87
2018-12-16T09:27:21.134Z,6.35
2018-12-16T09:29:48.703Z,5.30
2018-12-16T09:32:16.277Z,5.50
2018-12-16T09:34:43.711Z,7.22
2018-12-16T09:37:11.507Z,6.87
2018-12-16T09:39:39.315Z,4.70
2018-12-16T09:42:06.740Z,5.57
2018-12-16T09:44:34.284Z,4.75
2018-12-16T09:47:01.834Z,4.85
2018-12-16T09:49:30.049Z,4.87
2018-12-16T09:51:57.691Z,5.45
2018-12-16T09:54:25.349Z,4.25
2018-12-16T09:56:52.748Z,4.00
2018-12-16T09:59:21.224Z,4.95
2018-12-16T10:01:49.104Z,5.12
2018-12-16T10:04:16.659Z,7.85
2018-12-16T10:06:44.112Z,4.62
2018-12-16T10:09:11.523Z,6.30
2018-12-16T10:11:38.971Z,5.10
2018-12-16T10:14:06.391Z,9.23
2018-12-16T10:16:33.804Z,7.68
2018-12-16T10:19:01.433Z,5.00
2018-12-16T11:57:26.329Z,7.90
2018-12-16T12:07:17.977Z,7.53
2018-12-16T12:09:46.942Z,7.53
2018-12-16T12:12:14.799Z,7.20
2018-12-16T12:14:42.589Z,8.13
2018-12-16T12:17:11.231Z,7.70
2018-12-16T12:19:39.050Z,7.62
2018-12-16T12:22:06.846Z,8.60
2018-12-16T12:24:35.260Z,7.87
2018-12-16T12:27:02.821Z,8.30
2018-12-16T12:29:30.316Z,8.93
2018-12-16T12:31:57.829Z,7.60
2018-12-16T12:36:53.583Z,8.05
2018-12-16T12:39:22.437Z,6.37
2018-12-16T12:41:49.886Z,7.07
2018-12-16T12:44:17.316Z,7.62
2018-12-16T12:46:44.793Z,8.95
2018-12-16T12:49:12.205Z,10.57
2018-12-16T12:51:39.621Z,8.68
2018-12-16T12:54:07.217Z,7.50
2018-12-16T12:59:03.207Z,7.87
2018-12-16T13:01:30.708Z,7.00
2018-12-16T13:03:58.176Z,6.93
2018-12-16T13:06:25.670Z,7.90
2018-12-16T13:08:53.122Z,9.90
2018-12-16T13:11:20.559Z,6.65
2018-12-16T13:13:48.106Z,7.70
2018-12-16T13:16:15.574Z,8.23
2018-12-16T13:18:43.015Z,8.38
2018-12-16T13:21:11.377Z,6.50
2018-12-16T13:23:38.834Z,8.68
2018-12-16T13:26:06.350Z,8.25
2018-12-16T13:28:33.759Z,8.77
2018-12-16T13:31:01.199Z,7.57
2018-12-16T13:33:28.651Z,7.65
2018-12-16T13:35:56.059Z,6.82
2018-12-16T13:38:23.464Z,7.07
2018-12-16T13:40:50.887Z,7.20
2018-12-16T13:43:18.655Z,10.25
2018-12-16T13:45:46.049Z,7.82
2018-12-16T13:48:13.516Z,7.70
2018-12-16T13:50:40.902Z,7.77
2018-12-16T13:53:08.488Z,9.00
2018-12-16T13:55:40.811Z,8.67
2018-12-16T13:58:03.564Z,7.15
2018-12-16T14:00:31.017Z,6.15
2018-12-16T14:02:58.655Z,7.30
2018-12-16T14:07:53.105Z,6.80
2018-12-16T14:10:20.564Z,9.70
2018-12-16T14:12:47.979Z,8.43
2018-12-16T14:15:15.389Z,8.43
2018-12-16T14:17:42.803Z,8.38
2018-12-16T14:20:10.255Z,7.10
2018-12-16T14:22:37.699Z,8.90
2018-12-16T14:27:33.267Z,7.10
2018-12-16T14:30:01.236Z,7.30
2018-12-16T14:32:28.779Z,8.65
2018-12-16T20:25:25.998Z,12.97
2018-12-16T20:27:53.413Z,13.65
2018-12-16T20:30:21.161Z,11.95
2018-12-16T20:35:15.571Z,12.65
2018-12-16T20:37:42.983Z,12.70
2018-12-16T20:40:10.419Z,13.70
2018-12-16T20:45:05.998Z,9.90
2018-12-16T20:47:33.423Z,13.80
2018-12-16T20:50:00.855Z,18.15
2018-12-16T21:04:43.712Z,11.50
2018-12-16T21:07:11.124Z,9.63
2018-12-16T21:09:38.619Z,10.13
2018-12-16T21:12:06.027Z,19.00
2018-12-16T21:19:38.749Z,9.45
2018-12-16T21:36:48.859Z,10.40
2018-12-16T21:49:04.239Z,10.30
2018-12-16T22:06:14.069Z,10.17
2018-12-16T22:08:41.524Z,8.90
2018-12-16T22:11:09.304Z,11.00
2018-12-16T22:13:36.720Z,9.10
2018-12-16T22:16:04.368Z,8.82
2018-12-16T22:18:32.048Z,6.40
2018-12-16T22:20:59.463Z,7.60
2018-12-16T22:23:27.284Z,6.70
2018-12-16T22:25:54.704Z,6.90
2018-12-16T22:28:23.768Z,6.05
2018-12-16T22:30:49.620Z,6.10
2018-12-16T22:38:16.769Z,5.30
2018-12-16T22:43:11.149Z,6.90
2018-12-16T22:45:38.539Z,5.25
2018-12-16T22:48:05.947Z,9.25
2018-12-16T22:50:34.181Z,7.07
2018-12-16T22:53:01.573Z,4.90
2018-12-16T22:57:55.960Z,5.05
2018-12-16T23:12:38.264Z,22.70
